Time;durP1;ratioP1;P1;durP2;ratioP2;P2;SDS_P1;SDS_P2;PMS_P1;PMS_P2;Temp;Humidity;BMP_temperature;BMP_pressure;BME280_temperature;BME280_humidity;BME280_pressure;Samples;Min_cycle;Max_cycle;Signal;HPM_P1;HPM_P2
2021/09/09 00:00:14;;;;;;;10.37;7.10;;;;;;;;;;5057580;28;20020;-82
2021/09/09 00:02:39;;;;;;;9.53;7.37;;;;;;;;;;5057311;28;20025;-82
2021/09/09 00:05:06;;;;;;;8.73;6.80;;;;;;;;;;5057258;28;20035;-81
2021/09/09 00:07:32;;;;;;;9.18;7.13;;;;;;;;;;5055904;28;20060;-81
2021/09/09 00:09:58;;;;;;;9.32;7.10;;;;;;;;;;5057395;28;20057;-81
2021/09/09 00:12:23;;;;;;;8.27;6.77;;;;;;;;;;5057169;28;20083;-82
2021/09/09 00:14:48;;;;;;;9.97;7.13;;;;;;;;;;5056823;28;20095;-81
2021/09/09 00:17:14;;;;;;;10.37;7.30;;;;;;;;;;5056081;28;20032;-82
2021/09/09 00:19:39;;;;;;;8.87;7.27;;;;;;;;;;5055992;28;20021;-81
2021/09/09 00:22:05;;;;;;;9.30;7.03;;;;;;;;;;5055930;28;20032;-83
2021/09/09 00:24:30;;;;;;;9.57;7.60;;;;;;;;;;5056924;28;20035;-82
2021/09/09 00:26:55;;;;;;;8.77;6.90;;;;;;;;;;5056886;28;20031;-82
2021/09/09 00:29:20;;;;;;;9.43;8.00;;;;;;;;;;5055687;28;20021;-83
2021/09/09 00:31:46;;;;;;;9.30;7.17;;;;;;;;;;5056538;28;20039;-82
2021/09/09 00:34:11;;;;;;;8.53;7.03;;;;;;;;;;5056540;28;20025;-82
2021/09/09 00:36:37;;;;;;;8.93;6.73;;;;;;;;;;5056191;28;20431;-81
2021/09/09 00:39:02;;;;;;;10.60;7.27;;;;;;;;;;5055558;28;20033;-81
2021/09/09 00:41:29;;;;;;;11.47;8.07;;;;;;;;;;5056751;28;20037;-82
2021/09/09 00:43:54;;;;;;;9.13;6.82;;;;;;;;;;5056344;28;20091;-82
2021/09/09 00:46:22;;;;;;;10.10;6.90;;;;;;;;;;5055129;28;20473;-82
2021/09/09 00:48:48;;;;;;;7.85;6.80;;;;;;;;;;5056326;28;20027;-82
2021/09/09 00:51:13;;;;;;;9.67;7.10;;;;;;;;;;5056081;28;20025;-81
2021/09/09 00:53:41;;;;;;;10.40;6.47;;;;;;;;;;5055998;28;20355;-81
2021/09/09 00:56:07;;;;;;;8.50;6.82;;;;;;;;;;5055669;28;20056;-83
2021/09/09 00:58:33;;;;;;;11.53;7.50;;;;;;;;;;5056007;28;20403;-82
2021/09/09 01:00:59;;;;;;;17.10;9.68;;;;;;;;;;5056090;28;20123;-82
2021/09/09 01:03:24;;;;;;;10.40;6.80;;;;;;;;;;5055093;28;20087;-82
2021/09/09 01:05:49;;;;;;;7.60;6.53;;;;;;;;;;5055076;28;20078;-82
2021/09/09 01:08:15;;;;;;;9.57;7.70;;;;;;;;;;5055695;28;20439;-82
2021/09/09 01:10:40;;;;;;;8.53;6.80;;;;;;;;;;5056123;28;20418;-82
2021/09/09 01:13:09;;;;;;;10.27;7.17;;;;;;;;;;5055869;28;20020;-82
2021/09/09 01:15:42;;;;;;;9.55;7.15;;;;;;;;;;5054771;28;20024;-82
2021/09/09 01:18:10;;;;;;;10.20;7.30;;;;;;;;;;5038614;28;20036;-82
2021/09/09 01:20:35;;;;;;;9.85;7.75;;;;;;;;;;5055446;28;20029;-82
2021/09/09 01:23:01;;;;;;;9.53;7.43;;;;;;;;;;5055793;28;20344;-82
2021/09/09 01:25:26;;;;;;;8.53;6.80;;;;;;;;;;5054961;28;20447;-82
2021/09/09 01:27:51;;;;;;;11.00;7.57;;;;;;;;;;5055392;28;20021;-82
2021/09/09 01:30:17;;;;;;;10.27;7.43;;;;;;;;;;5054703;28;20036;-82
2021/09/09 01:32:42;;;;;;;10.10;7.47;;;;;;;;;;5055566;28;20029;-82
2021/09/09 01:35:08;;;;;;;9.50;7.50;;;;;;;;;;5055523;28;20446;-82
2021/09/09 01:37:34;;;;;;;8.93;7.07;;;;;;;;;;5055321;28;20102;-82
2021/09/09 01:39:59;;;;;;;10.37;8.33;;;;;;;;;;5054378;28;20263;-82
2021/09/09 01:42:24;;;;;;;11.07;7.83;;;;;;;;;;5054304;28;20513;-82
2021/09/09 01:44:50;;;;;;;9.83;7.20;;;;;;;;;;5055047;28;20037;-81
2021/09/09 01:47:15;;;;;;;10.03;8.30;;;;;;;;;;5055247;28;20512;-82
2021/09/09 01:49:41;;;;;;;10.47;7.60;;;;;;;;;;5055314;28;20025;-82
2021/09/09 01:52:06;;;;;;;8.77;7.23;;;;;;;;;;5054251;28;20029;-82
2021/09/09 01:54:31;;;;;;;8.53;7.37;;;;;;;;;;5055110;28;20155;-82
2021/09/09 01:56:57;;;;;;;10.50;7.37;;;;;;;;;;5054239;28;20036;-82
2021/09/09 01:59:22;;;;;;;10.30;7.30;;;;;;;;;;5055740;28;20029;-82
2021/09/09 02:01:47;;;;;;;9.80;7.53;;;;;;;;;;5054094;28;20025;-82
2021/09/09 02:04:13;;;;;;;9.73;6.97;;;;;;;;;;5055506;28;20044;-82
2021/09/09 02:06:38;;;;;;;9.57;7.47;;;;;;;;;;5054117;28;20017;-83
2021/09/09 02:09:04;;;;;;;10.63;7.77;;;;;;;;;;5055426;28;20024;-82
2021/09/09 02:11:30;;;;;;;10.03;7.40;;;;;;;;;;5054427;28;20039;-82
2021/09/09 02:13:56;;;;;;;10.18;7.75;;;;;;;;;;5055185;28;20094;-82
2021/09/09 02:16:21;;;;;;;9.87;7.97;;;;;;;;;;5054519;28;20443;-82
2021/09/09 02:18:47;;;;;;;10.53;7.53;;;;;;;;;;5055528;28;20520;-82
2021/09/09 02:21:13;;;;;;;8.10;7.17;;;;;;;;;;5055243;28;20022;-81
2021/09/09 02:23:38;;;;;;;8.95;6.75;;;;;;;;;;5055194;28;20036;-82
2021/09/09 02:26:04;;;;;;;8.57;7.10;;;;;;;;;;5058994;28;20021;-82
2021/09/09 02:28:29;;;;;;;8.70;7.68;;;;;;;;;;5065737;28;20032;-82
2021/09/09 02:30:55;;;;;;;10.43;7.40;;;;;;;;;;5073627;28;20089;-82
2021/09/09 02:33:20;;;;;;;10.77;7.10;;;;;;;;;;5077436;28;20043;-82
2021/09/09 02:35:46;;;;;;;9.93;7.27;;;;;;;;;;5077840;28;20089;-82
2021/09/09 02:38:12;;;;;;;9.27;7.10;;;;;;;;;;5072777;28;20032;-81
2021/09/09 02:40:37;;;;;;;10.83;6.83;;;;;;;;;;5073334;28;20035;-80
2021/09/09 02:43:02;;;;;;;9.83;7.77;;;;;;;;;;5059945;28;20053;-81
2021/09/09 02:45:28;;;;;;;10.10;6.60;;;;;;;;;;5061578;28;20465;-81
2021/09/09 02:47:53;;;;;;;9.87;8.17;;;;;;;;;;5059323;28;20021;-81
2021/09/09 02:50:18;;;;;;;9.97;7.37;;;;;;;;;;5058526;28;20025;-81
2021/09/09 02:52:44;;;;;;;11.03;8.03;;;;;;;;;;5060653;28;20029;-82
2021/09/09 02:55:10;;;;;;;8.93;7.10;;;;;;;;;;5059878;28;20351;-81
2021/09/09 02:57:37;;;;;;;9.30;7.43;;;;;;;;;;5059934;28;20067;-81
2021/09/09 03:00:07;;;;;;;8.15;7.35;;;;;;;;;;5063824;28;20033;-80
2021/09/09 03:02:33;;;;;;;11.98;7.50;;;;;;;;;;5064225;28;20031;-81
2021/09/09 03:04:58;;;;;;;9.70;7.33;;;;;;;;;;5064050;28;20013;-82
2021/09/09 03:07:23;;;;;;;8.73;7.40;;;;;;;;;;5059503;28;20075;-82
2021/09/09 03:09:49;;;;;;;10.90;8.37;;;;;;;;;;5059000;28;20032;-82
2021/09/09 03:12:14;;;;;;;10.47;7.83;;;;;;;;;;5058827;28;20439;-82
2021/09/09 03:14:39;;;;;;;10.80;8.03;;;;;;;;;;5058192;28;20032;-81
2021/09/09 03:17:05;;;;;;;12.30;7.67;;;;;;;;;;5058307;28;20040;-82
2021/09/09 03:19:31;;;;;;;9.37;7.03;;;;;;;;;;5058334;28;20029;-81
2021/09/09 03:21:56;;;;;;;9.07;7.22;;;;;;;;;;5058310;28;20032;-81
2021/09/09 03:24:22;;;;;;;9.87;7.10;;;;;;;;;;5058356;28;20025;-83
2021/09/09 03:26:47;;;;;;;9.30;7.10;;;;;;;;;;5057963;28;20055;-82
2021/09/09 03:29:12;;;;;;;10.93;8.20;;;;;;;;;;5057916;28;20033;-81
2021/09/09 03:31:38;;;;;;;10.90;7.67;;;;;;;;;;5056858;28;20056;-81
2021/09/09 03:34:03;;;;;;;11.10;7.40;;;;;;;;;;5057751;28;20036;-82
2021/09/09 03:36:29;;;;;;;10.17;7.40;;;;;;;;;;5056634;28;20025;-81
2021/09/09 03:38:55;;;;;;;11.80;8.27;;;;;;;;;;5057397;28;20025;-81
2021/09/09 03:41:20;;;;;;;9.57;8.05;;;;;;;;;;5056672;28;20029;-82
2021/09/09 03:43:45;;;;;;;9.60;8.03;;;;;;;;;;5056724;28;20049;-81
2021/09/09 03:46:11;;;;;;;9.90;7.60;;;;;;;;;;5057399;28;20095;-83
2021/09/09 03:48:37;;;;;;;9.98;7.70;;;;;;;;;;5055737;28;20053;-82
2021/09/09 03:51:03;;;;;;;9.60;7.20;;;;;;;;;;5057509;28;20116;-82
2021/09/09 03:53:28;;;;;;;9.00;7.20;;;;;;;;;;5057385;28;20357;-82
2021/09/09 03:55:53;;;;;;;9.10;7.23;;;;;;;;;;5057513;28;20451;-82
2021/09/09 03:58:19;;;;;;;9.97;7.13;;;;;;;;;;5057429;28;20051;-82
2021/09/09 04:00:44;;;;;;;9.43;7.50;;;;;;;;;;5057858;28;20082;-82
2021/09/09 04:03:09;;;;;;;11.17;6.63;;;;;;;;;;5057382;28;20025;-81
2021/09/09 04:05:35;;;;;;;10.17;7.70;;;;;;;;;;5056344;28;20363;-81
2021/09/09 04:08:00;;;;;;;7.80;6.23;;;;;;;;;;5057163;28;20036;-82
2021/09/09 04:10:25;;;;;;;12.80;7.20;;;;;;;;;;5057111;28;20029;-82
2021/09/09 04:12:51;;;;;;;9.60;7.13;;;;;;;;;;5056496;28;20450;-81
2021/09/09 04:15:16;;;;;;;9.37;7.20;;;;;;;;;;5057243;28;20028;-82
2021/09/09 04:17:42;;;;;;;8.53;7.53;;;;;;;;;;5057097;28;20602;-82
2021/09/09 04:20:09;;;;;;;12.03;7.53;;;;;;;;;;5057068;28;20028;-81
2021/09/09 04:22:35;;;;;;;10.00;7.25;;;;;;;;;;5057077;28;20029;-82
2021/09/09 04:25:02;;;;;;;10.25;7.85;;;;;;;;;;5055866;28;20037;-82
2021/09/09 04:27:30;;;;;;;9.73;7.50;;;;;;;;;;5057156;28;20036;-82
2021/09/09 04:29:56;;;;;;;10.70;8.07;;;;;;;;;;5056158;28;20024;-82
2021/09/09 04:32:21;;;;;;;11.73;7.97;;;;;;;;;;5056618;28;20025;-81
2021/09/09 04:34:47;;;;;;;10.87;8.10;;;;;;;;;;5056715;28;20040;-81
2021/09/09 04:37:12;;;;;;;9.50;7.37;;;;;;;;;;5056943;28;20029;-81
2021/09/09 04:39:38;;;;;;;9.97;7.80;;;;;;;;;;5056908;28;20131;-82
2021/09/09 04:42:03;;;;;;;10.20;7.63;;;;;;;;;;5056883;28;20021;-82
2021/09/09 04:44:28;;;;;;;11.10;8.27;;;;;;;;;;5055428;28;20048;-81
2021/09/09 04:46:54;;;;;;;11.20;8.17;;;;;;;;;;5056562;28;20033;-81
2021/09/09 04:49:19;;;;;;;10.80;8.17;;;;;;;;;;5056337;28;20366;-81
2021/09/09 04:51:44;;;;;;;9.27;7.40;;;;;;;;;;5056390;28;20112;-82
2021/09/09 04:54:10;;;;;;;13.37;8.37;;;;;;;;;;5056285;28;20025;-81
2021/09/09 04:56:35;;;;;;;9.83;8.10;;;;;;;;;;5056477;28;20453;-82
2021/09/09 04:59:01;;;;;;;9.53;8.27;;;;;;;;;;5056225;28;20090;-81
2021/09/09 05:01:26;;;;;;;10.23;8.00;;;;;;;;;;5056008;28;20362;-82
2021/09/09 05:03:51;;;;;;;13.10;7.80;;;;;;;;;;5056591;28;20028;-82
2021/09/09 05:06:17;;;;;;;8.70;7.43;;;;;;;;;;5055937;28;20094;-82
2021/09/09 05:08:42;;;;;;;9.93;7.90;;;;;;;;;;5056350;28;20435;-81
2021/09/09 05:11:09;;;;;;;10.33;7.77;;;;;;;;;;5054954;28;20439;-82
2021/09/09 05:13:34;;;;;;;9.60;7.65;;;;;;;;;;5055059;28;20029;-82
2021/09/09 05:15:59;;;;;;;15.13;8.17;;;;;;;;;;5056636;28;20504;-82
2021/09/09 05:18:25;;;;;;;10.47;8.30;;;;;;;;;;5056790;28;20044;-82
2021/09/09 05:20:50;;;;;;;9.40;7.40;;;;;;;;;;5055805;28;20451;-82
2021/09/09 05:23:15;;;;;;;13.50;8.17;;;;;;;;;;5054932;28;20447;-82
2021/09/09 05:25:41;;;;;;;10.73;7.63;;;;;;;;;;5055641;28;20087;-82
2021/09/09 05:28:06;;;;;;;9.13;7.83;;;;;;;;;;5054645;28;20055;-82
2021/09/09 05:30:31;;;;;;;9.73;8.00;;;;;;;;;;5055909;28;20435;-83
2021/09/09 05:32:57;;;;;;;17.23;8.43;;;;;;;;;;5055625;28;20029;-81
2021/09/09 05:35:22;;;;;;;10.43;7.97;;;;;;;;;;5055867;28;20078;-82
2021/09/09 05:37:47;;;;;;;13.10;9.40;;;;;;;;;;5054873;28;20079;-81
2021/09/09 05:40:13;;;;;;;9.67;7.63;;;;;;;;;;5054691;28;20029;-82
2021/09/09 05:42:38;;;;;;;11.20;7.83;;;;;;;;;;5055790;28;20050;-82
2021/09/09 05:45:04;;;;;;;10.53;7.73;;;;;;;;;;5056466;28;20442;-82
2021/09/09 05:47:29;;;;;;;11.00;8.07;;;;;;;;;;5057087;28;20036;-81
2021/09/09 05:49:55;;;;;;;9.00;7.87;;;;;;;;;;5059397;28;20017;-81
2021/09/09 05:52:21;;;;;;;14.07;8.70;;;;;;;;;;5058922;28;20029;-82
2021/09/09 05:54:46;;;;;;;12.43;7.43;;;;;;;;;;5059241;28;20040;-82
2021/09/09 05:57:11;;;;;;;13.43;8.50;;;;;;;;;;5058689;28;20439;-82
2021/09/09 05:59:37;;;;;;;10.03;8.37;;;;;;;;;;5062692;28;20032;-82
2021/09/09 06:02:04;;;;;;;10.07;8.10;;;;;;;;;;5059296;28;20024;-82
2021/09/09 06:04:34;;;;;;;9.75;7.72;;;;;;;;;;5058193;28;20032;-81
2021/09/09 06:07:00;;;;;;;10.52;7.60;;;;;;;;;;5057106;28;20493;-82
2021/09/09 06:09:25;;;;;;;16.48;8.30;;;;;;;;;;5055594;28;20029;-82
2021/09/09 06:11:50;;;;;;;13.20;8.80;;;;;;;;;;5056379;28;20028;-83
2021/09/09 06:14:16;;;;;;;13.20;8.33;;;;;;;;;;5055998;28;20024;-80
2021/09/09 06:16:41;;;;;;;18.07;9.87;;;;;;;;;;5055741;28;20036;-82
2021/09/09 06:19:06;;;;;;;13.00;8.40;;;;;;;;;;5055806;28;20158;-83
2021/09/09 06:21:32;;;;;;;19.83;9.03;;;;;;;;;;5054472;28;20447;-82
2021/09/09 06:23:57;;;;;;;16.23;9.23;;;;;;;;;;5055286;28;20091;-82
2021/09/09 06:26:22;;;;;;;22.23;9.23;;;;;;;;;;5055404;28;20068;-81
2021/09/09 06:28:48;;;;;;;13.73;8.30;;;;;;;;;;5055048;28;20036;-82
2021/09/09 06:31:13;;;;;;;12.73;9.63;;;;;;;;;;5055035;28;20025;-81
2021/09/09 06:33:39;;;;;;;11.93;7.80;;;;;;;;;;5059746;28;20028;-81
2021/09/09 06:36:04;;;;;;;10.50;8.20;;;;;;;;;;5060976;28;20070;-83
2021/09/09 06:38:30;;;;;;;13.63;8.33;;;;;;;;;;5060084;28;20059;-81
2021/09/09 06:40:56;;;;;;;11.70;7.57;;;;;;;;;;5059965;28;20064;-82
2021/09/09 06:43:21;;;;;;;13.07;7.53;;;;;;;;;;5053531;28;20045;-82
2021/09/09 06:45:46;;;;;;;9.73;7.33;;;;;;;;;;5054841;28;20021;-82
2021/09/09 06:48:12;;;;;;;11.67;7.63;;;;;;;;;;5054228;28;20111;-82
2021/09/09 06:50:39;;;;;;;11.30;7.23;;;;;;;;;;5054695;28;20094;-82
2021/09/09 06:53:04;;;;;;;10.80;7.18;;;;;;;;;;5058624;28;20021;-82
2021/09/09 06:55:29;;;;;;;9.33;7.83;;;;;;;;;;5068128;28;20024;-82
2021/09/09 06:57:55;;;;;;;10.60;7.43;;;;;;;;;;5071810;28;20032;-82
2021/09/09 07:00:20;;;;;;;10.33;8.30;;;;;;;;;;5077186;28;20043;-81
2021/09/09 07:02:45;;;;;;;9.30;7.07;;;;;;;;;;5076996;28;20021;-83
2021/09/09 07:05:11;;;;;;;11.47;7.73;;;;;;;;;;5067717;28;20045;-82
2021/09/09 07:07:38;;;;;;;10.57;7.13;;;;;;;;;;5056960;28;20033;-82
2021/09/09 07:10:04;;;;;;;10.25;7.05;;;;;;;;;;5055195;28;20024;-82
2021/09/09 07:12:29;;;;;;;10.63;7.77;;;;;;;;;;5055053;28;20466;-81
2021/09/09 07:14:54;;;;;;;11.53;7.80;;;;;;;;;;5063809;28;20279;-82
2021/09/09 07:17:20;;;;;;;14.00;7.83;;;;;;;;;;5065597;28;20051;-82
2021/09/09 07:19:45;;;;;;;9.80;6.67;;;;;;;;;;5063701;28;20462;-82
2021/09/09 07:22:10;;;;;;;9.43;7.17;;;;;;;;;;5055278;28;20435;-83
2021/09/09 07:24:36;;;;;;;8.53;6.93;;;;;;;;;;5057244;28;20435;-84
2021/09/09 07:27:01;;;;;;;7.77;6.73;;;;;;;;;;5058061;28;20079;-83
2021/09/09 07:29:26;;;;;;;7.17;6.23;;;;;;;;;;5056798;28;20029;-83
2021/09/09 07:31:52;;;;;;;7.77;6.67;;;;;;;;;;5057641;28;20025;-82
2021/09/09 07:34:17;;;;;;;10.17;6.37;;;;;;;;;;5057381;28;20447;-82
2021/09/09 07:36:43;;;;;;;7.93;6.60;;;;;;;;;;5058023;28;20044;-83
2021/09/09 07:39:08;;;;;;;7.72;6.20;;;;;;;;;;5057815;28;20522;-83
2021/09/09 07:41:34;;;;;;;7.77;6.40;;;;;;;;;;5057311;28;20025;-84
2021/09/09 07:44:00;;;;;;;7.63;6.15;;;;;;;;;;5057249;28;20326;-81
2021/09/09 07:46:26;;;;;;;9.35;6.10;;;;;;;;;;5057271;28;20025;-82
2021/09/09 07:48:53;;;;;;;7.68;5.80;;;;;;;;;;5057374;28;20401;-82
2021/09/09 07:51:18;;;;;;;;;;;;;;;;;;5057522;28;20072;-82
2021/09/09 07:53:45;;;;;;;6.85;6.00;;;;;;;;;;5057080;28;19909;-82
2021/09/09 07:56:11;;;;;;;8.77;6.60;;;;;;;;;;5057120;28;20029;-83
2021/09/09 07:58:37;;;;;;;8.75;6.38;;;;;;;;;;5056111;28;20463;-82
2021/09/09 08:01:02;;;;;;;8.63;5.72;;;;;;;;;;5057202;28;20048;-82
2021/09/09 08:03:28;;;;;;;12.10;6.18;;;;;;;;;;5056242;28;20087;-83
2021/09/09 08:05:54;;;;;;;;;;;;;;;;;;5057818;28;20029;-86
2021/09/09 08:08:19;;;;;;;;;;;;;;;;;;5058166;28;20305;-83
2021/09/09 08:10:44;;;;;;;7.65;5.90;;;;;;;;;;5057394;28;20330;-84
2021/09/09 08:13:09;;;;;;;;;;;;;;;;;;5057289;28;20043;-84
2021/09/09 08:15:37;;;;;;;7.87;6.00;;;;;;;;;;5055586;28;20273;-83
2021/09/09 08:18:02;;;;;;;6.32;5.72;;;;;;;;;;5056855;28;20044;-82
2021/09/09 08:20:27;;;;;;;;;;;;;;;;;;5055990;28;20434;-83
2021/09/09 08:22:53;;;;;;;;;;;;;;;;;;5057054;28;19912;-81
2021/09/09 08:25:18;;;;;;;6.63;5.50;;;;;;;;;;5056769;28;20339;-81
2021/09/09 08:27:43;;;;;;;;;;;;;;;;;;5057091;28;20107;-81
2021/09/09 08:30:09;;;;;;;;;;;;;;;;;;5056748;28;19963;-81
2021/09/09 08:32:34;;;;;;;7.35;5.57;;;;;;;;;;5056599;28;19909;-80
2021/09/09 08:34:59;;;;;;;7.57;5.78;;;;;;;;;;5056390;28;20021;-84
2021/09/09 08:37:25;;;;;;;10.10;6.38;;;;;;;;;;5056203;28;20024;-81
2021/09/09 08:39:51;;;;;;;7.78;6.00;;;;;;;;;;5056532;28;20025;-81
2021/09/09 08:42:18;;;;;;;7.45;5.63;;;;;;;;;;5055904;28;20111;-81
2021/09/09 08:44:44;;;;;;;6.65;5.88;;;;;;;;;;5056039;28;20065;-82
2021/09/09 08:47:10;;;;;;;9.15;6.22;;;;;;;;;;5056198;28;20099;-81
2021/09/09 08:49:36;;;;;;;6.07;5.20;;;;;;;;;;5056030;28;20386;-81
2021/09/09 08:52:03;;;;;;;9.00;5.68;;;;;;;;;;5056344;28;20086;-81
2021/09/09 08:54:29;;;;;;;6.18;5.50;;;;;;;;;;5056150;28;20029;-83
2021/09/09 08:56:55;;;;;;;;;;;;;;;;;;5056770;28;20097;-80
2021/09/09 08:59:20;;;;;;;8.07;5.97;;;;;;;;;;5055737;28;19908;-80
2021/09/09 09:02:04;;;;;;;7.63;5.70;;;;;;;;;;5056066;28;20267;-80
2021/09/09 09:04:30;;;;;;;10.13;5.70;;;;;;;;;;5055688;28;20452;-82
2021/09/09 09:06:56;;;;;;;6.60;5.25;;;;;;;;;;5054843;28;20036;-82
2021/09/09 09:09:24;;;;;;;8.63;6.07;;;;;;;;;;5054626;28;20025;-80
2021/09/09 09:11:51;;;;;;;8.90;6.03;;;;;;;;;;5054597;28;20047;-82
2021/09/09 09:14:22;;;;;;;9.73;6.35;;;;;;;;;;5054578;28;20139;-81
2021/09/09 09:16:51;;;;;;;8.65;5.85;;;;;;;;;;5055753;28;20079;-82
2021/09/09 09:19:21;;;;;;;8.77;5.90;;;;;;;;;;5055499;28;20020;-78
2021/09/09 09:21:51;;;;;;;10.65;7.15;;;;;;;;;;5055722;28;20330;-78
2021/09/09 09:24:19;;;;;;;6.82;5.82;;;;;;;;;;5055601;28;20039;-80
2021/09/09 09:27:07;;;;;;;8.60;5.65;;;;;;;;;;5055311;28;20027;-81
2021/09/09 09:29:33;;;;;;;6.70;6.00;;;;;;;;;;5055567;28;20029;-82
2021/09/09 09:32:12;;;;;;;;;;;;;;;;;;5056047;28;20086;-81
2021/09/09 09:34:39;;;;;;;6.93;5.78;;;;;;;;;;5055631;28;19909;-80
2021/09/09 09:37:04;;;;;;;11.55;6.22;;;;;;;;;;5055594;28;20033;-82
2021/09/09 09:39:30;;;;;;;8.25;5.50;;;;;;;;;;5055013;28;20037;-79
2021/09/09 09:42:01;;;;;;;7.70;5.07;;;;;;;;;;5055336;28;20025;-81
2021/09/09 09:44:34;;;;;;;5.97;4.38;;;;;;;;;;5053880;28;20045;-81
2021/09/09 09:47:13;;;;;;;5.18;4.05;;;;;;;;;;5054617;28;20032;-80
2021/09/09 09:49:43;;;;;;;7.07;4.13;;;;;;;;;;5054039;28;20525;-80
2021/09/09 09:52:17;;;;;;;6.88;3.83;;;;;;;;;;5055245;28;20103;-80
2021/09/09 09:54:54;;;;;;;5.63;4.07;;;;;;;;;;5055052;28;20320;-80
2021/09/09 09:57:21;;;;;;;6.25;4.20;;;;;;;;;;5053876;28;20439;-79
2021/09/09 09:59:46;;;;;;;4.68;3.90;;;;;;;;;;5054891;28;20467;-83
2021/09/09 10:02:11;;;;;;;15.07;13.73;;;;;;;;;;5055384;28;20025;-80
2021/09/09 10:04:41;;;;;;;5.10;3.85;;;;;;;;;;5055012;28;20107;-80
2021/09/09 10:07:09;;;;;;;5.03;3.78;;;;;;;;;;5053823;28;20109;-79
2021/09/09 10:09:34;;;;;;;6.55;4.18;;;;;;;;;;5054799;28;20036;-79
2021/09/09 10:11:59;;;;;;;5.38;3.90;;;;;;;;;;5055121;28;20025;-79
2021/09/09 10:14:26;;;;;;;8.10;4.60;;;;;;;;;;5054865;28;20111;-78
2021/09/09 10:16:55;;;;;;;5.70;3.78;;;;;;;;;;5054942;28;20021;-79
2021/09/09 10:19:32;;;;;;;5.72;4.05;;;;;;;;;;5054584;28;20048;-79
2021/09/09 10:22:21;;;;;;;6.78;3.80;;;;;;;;;;5053535;28;20047;-80
2021/09/09 10:25:03;;;;;;;5.72;4.18;;;;;;;;;;5051621;28;20118;-80
2021/09/09 10:27:33;;;;;;;6.80;4.78;;;;;;;;;;5054775;28;20040;-82
2021/09/09 10:30:04;;;;;;;7.05;5.25;;;;;;;;;;5054761;28;20036;-80
2021/09/09 10:32:29;;;;;;;4.65;3.80;;;;;;;;;;5054374;28;20025;-80
2021/09/09 10:35:14;;;;;;;5.10;4.00;;;;;;;;;;5054391;28;20032;-80
2021/09/09 10:37:39;;;;;;;5.53;3.83;;;;;;;;;;5054480;28;20036;-80
2021/09/09 10:40:05;;;;;;;4.30;3.72;;;;;;;;;;5054611;28;20028;-79
2021/09/09 10:42:38;;;;;;;5.03;3.92;;;;;;;;;;5054241;28;20052;-78
2021/09/09 10:45:06;;;;;;;4.90;3.83;;;;;;;;;;5053533;28;20065;-80
2021/09/09 10:47:49;;;;;;;5.25;3.88;;;;;;;;;;5053471;28;20082;-80
2021/09/09 10:50:14;;;;;;;5.95;4.00;;;;;;;;;;5055115;28;20351;-80
2021/09/09 10:52:58;;;;;;;5.75;3.95;;;;;;;;;;5054387;28;20447;-81
2021/09/09 10:55:28;;;;;;;8.85;7.00;;;;;;;;;;5053701;28;20029;-83
2021/09/09 10:58:29;;;;;;;22.52;20.23;;;;;;;;;;5055847;28;20052;-80
2021/09/09 11:01:06;;;;;;;5.75;4.65;;;;;;;;;;5036579;28;20041;-80
2021/09/09 11:03:39;;;;;;;6.50;4.75;;;;;;;;;;5056970;28;20048;-83
2021/09/09 11:06:14;;;;;;;13.18;7.65;;;;;;;;;;5061630;28;20021;-81
2021/09/09 11:08:42;;;;;;;8.35;4.82;;;;;;;;;;5058166;28;20060;-83
2021/09/09 11:11:13;;;;;;;10.25;5.65;;;;;;;;;;5059743;28;20025;-82
2021/09/09 11:13:40;;;;;;;8.77;6.05;;;;;;;;;;5059060;28;20025;-80
2021/09/09 11:16:22;;;;;;;9.65;5.30;;;;;;;;;;5058102;28;20021;-83
2021/09/09 11:18:48;;;;;;;8.07;4.70;;;;;;;;;;5058211;28;20048;-83
2021/09/09 11:21:21;;;;;;;5.80;3.97;;;;;;;;;;5058747;28;20390;-83
2021/09/09 11:23:48;;;;;;;5.07;4.30;;;;;;;;;;5060940;28;20107;-82
2021/09/09 11:26:15;;;;;;;6.57;4.32;;;;;;;;;;5064819;28;20041;-83
2021/09/09 11:28:41;;;;;;;5.35;4.07;;;;;;;;;;5073346;28;20081;-83
2021/09/09 11:31:10;;;;;;;6.35;4.32;;;;;;;;;;5079351;28;20028;-84
2021/09/09 11:34:08;;;;;;;4.82;3.83;;;;;;;;;;5078757;28;20039;-82
2021/09/09 11:36:36;;;;;;;4.93;3.80;;;;;;;;;;5046987;28;20052;-83
2021/09/09 11:39:04;;;;;;;5.15;4.22;;;;;;;;;;5065715;28;20047;-80
2021/09/09 11:41:31;;;;;;;5.57;3.85;;;;;;;;;;5061040;28;20363;-82
2021/09/09 11:44:02;;;;;;;5.72;3.58;;;;;;;;;;5058643;28;20048;-83
2021/09/09 11:46:30;;;;;;;4.85;2.92;;;;;;;;;;5059226;28;20077;-84
2021/09/09 11:49:01;;;;;;;5.03;2.90;;;;;;;;;;5059172;28;20363;-85
2021/09/09 11:51:38;;;;;;;4.30;3.10;;;;;;;;;;5059435;28;20061;-83
2021/09/09 11:54:28;;;;;;;5.82;3.08;;;;;;;;;;5058746;28;20096;-81
2021/09/09 11:57:08;;;;;;;5.45;3.08;;;;;;;;;;5062962;28;20452;-82
2021/09/09 11:59:36;;;;;;;5.10;2.70;;;;;;;;;;5057438;28;20335;-83
2021/09/09 12:02:07;;;;;;;4.38;3.10;;;;;;;;;;5060698;28;20032;-81
2021/09/09 12:04:36;;;;;;;4.45;3.10;;;;;;;;;;5063030;28;20029;-83
2021/09/09 12:07:02;;;;;;;4.90;3.10;;;;;;;;;;5060892;28;20040;-82
2021/09/09 12:09:37;;;;;;;7.28;3.28;;;;;;;;;;5059107;28;20129;-81
2021/09/09 12:12:10;;;;;;;4.05;2.90;;;;;;;;;;5062458;28;20029;-81
2021/09/09 12:14:40;;;;;;;4.57;3.08;;;;;;;;;;5064745;28;20025;-80
2021/09/09 12:17:13;;;;;;;4.13;2.95;;;;;;;;;;5062505;28;20120;-80
2021/09/09 12:20:07;;;;;;;4.00;3.03;;;;;;;;;;5058110;28;20025;-82
2021/09/09 12:22:46;;;;;;;4.97;3.20;;;;;;;;;;5057400;28;20439;-82
2021/09/09 12:25:38;;;;;;;5.05;2.80;;;;;;;;;;5056740;28;20025;-82
2021/09/09 12:28:15;;;;;;;3.28;2.75;;;;;;;;;;5057207;28;20025;-82
2021/09/09 12:30:51;;;;;;;3.60;2.70;;;;;;;;;;5057160;28;20032;-82
2021/09/09 12:33:16;;;;;;;4.03;3.30;;;;;;;;;;5057183;28;20036;-82
2021/09/09 12:36:03;;;;;;;6.87;3.60;;;;;;;;;;5056564;28;20471;-83
2021/09/09 12:38:42;;;;;;;4.60;3.55;;;;;;;;;;5056489;28;20290;-80
2021/09/09 12:41:29;;;;;;;3.60;2.78;;;;;;;;;;5056426;28;20031;-82
2021/09/09 12:43:57;;;;;;;4.10;3.10;;;;;;;;;;5055553;28;20427;-83
2021/09/09 12:46:36;;;;;;;5.72;3.28;;;;;;;;;;5056826;28;20021;-81
2021/09/09 12:49:03;;;;;;;5.05;3.28;;;;;;;;;;5056363;28;20106;-81
2021/09/09 12:51:30;;;;;;;5.18;3.17;;;;;;;;;;5056201;28;20028;-82
2021/09/09 12:53:55;;;;;;;4.70;2.90;;;;;;;;;;5056361;28;20021;-82
2021/09/09 12:56:21;;;;;;;4.20;3.55;;;;;;;;;;5056184;28;20401;-83
2021/09/09 12:58:46;;;;;;;4.55;2.97;;;;;;;;;;5056168;28;20036;-82
2021/09/09 13:01:11;;;;;;;5.45;3.38;;;;;;;;;;5056415;28;20029;-81
2021/09/09 13:03:37;;;;;;;3.58;2.75;;;;;;;;;;5055719;28;20029;-82
2021/09/09 13:06:03;;;;;;;5.30;3.08;;;;;;;;;;5056530;28;20021;-84
2021/09/09 13:08:29;;;;;;;4.55;3.28;;;;;;;;;;5055273;28;20060;-83
2021/09/09 13:10:55;;;;;;;4.60;3.00;;;;;;;;;;5054526;28;20067;-80
2021/09/09 13:13:20;;;;;;;4.60;3.30;;;;;;;;;;5054473;28;20043;-81
2021/09/09 13:15:46;;;;;;;4.97;3.30;;;;;;;;;;5055797;28;20021;-83
2021/09/09 13:18:11;;;;;;;;;;;;;;;;;;5056138;28;20455;-82
2021/09/09 13:20:36;;;;;;;;;;;;;;;;;;5056262;28;19916;-83
2021/09/09 13:23:03;;;;;;;4.00;2.93;;;;;;;;;;5056330;28;20309;-84
2021/09/09 13:25:29;;;;;;;5.03;3.40;;;;;;;;;;5054559;28;20093;-84
2021/09/09 13:27:54;;;;;;;5.00;3.22;;;;;;;;;;5056124;28;20113;-84
2021/09/09 13:30:19;;;;;;;5.78;3.50;;;;;;;;;;5055852;28;20025;-87
2021/09/09 13:32:45;;;;;;;4.63;3.20;;;;;;;;;;5056619;28;20039;-87
2021/09/09 13:35:10;;;;;;;6.97;3.43;;;;;;;;;;5057002;28;20370;-83
2021/09/09 13:37:35;;;;;;;4.80;3.67;;;;;;;;;;5055901;28;20605;-86
2021/09/09 13:40:01;;;;;;;5.63;3.30;;;;;;;;;;5057599;28;20017;-86
2021/09/09 13:42:27;;;;;;;4.88;3.38;;;;;;;;;;5062741;28;20025;-86
2021/09/09 13:44:53;;;;;;;4.70;3.40;;;;;;;;;;5057318;28;20494;-85
2021/09/09 13:47:18;;;;;;;7.47;3.60;;;;;;;;;;5055581;28;20032;-86
2021/09/09 13:49:43;;;;;;;7.53;3.40;;;;;;;;;;5056730;28;20059;-83
2021/09/09 13:52:09;;;;;;;5.30;3.90;;;;;;;;;;5056156;28;20405;-84
2021/09/09 13:54:34;;;;;;;5.97;3.63;;;;;;;;;;5057388;28;20056;-86
2021/09/09 13:56:59;;;;;;;4.87;3.70;;;;;;;;;;5056653;28;20029;-88
2021/09/09 13:59:25;;;;;;;4.37;2.83;;;;;;;;;;5058117;28;20335;-86
2021/09/09 14:01:50;;;;;;;4.70;3.40;;;;;;;;;;5058525;28;20037;-85
2021/09/09 14:04:15;;;;;;;4.93;3.50;;;;;;;;;;5057863;28;20462;-86
2021/09/09 14:06:41;;;;;;;6.77;3.30;;;;;;;;;;5057920;28;20131;-87
2021/09/09 14:09:06;;;;;;;5.70;3.53;;;;;;;;;;5060710;28;20299;-86
2021/09/09 14:11:33;;;;;;;4.07;3.00;;;;;;;;;;5059618;28;20044;-88
2021/09/09 14:13:59;;;;;;;4.30;3.20;;;;;;;;;;5059139;28;20259;-87
2021/09/09 14:16:24;;;;;;;5.23;3.30;;;;;;;;;;5059091;28;20067;-87
2021/09/09 14:18:49;;;;;;;5.90;3.30;;;;;;;;;;5056885;28;20107;-83
2021/09/09 14:21:15;;;;;;;7.83;3.57;;;;;;;;;;5054523;28;20488;-84
2021/09/09 14:23:40;;;;;;;5.20;3.43;;;;;;;;;;5055283;28;20111;-86
2021/09/09 14:26:06;;;;;;;7.07;3.17;;;;;;;;;;5056352;28;20032;-88
2021/09/09 14:28:31;;;;;;;6.23;3.37;;;;;;;;;;5055044;28;20497;-86
2021/09/09 14:30:56;;;;;;;5.60;3.40;;;;;;;;;;5055077;28;20029;-87
2021/09/09 14:33:22;;;;;;;4.00;3.20;;;;;;;;;;5057042;28;20059;-86
2021/09/09 14:35:47;;;;;;;4.97;3.73;;;;;;;;;;5059830;28;20059;-85
2021/09/09 14:38:12;;;;;;;4.20;3.37;;;;;;;;;;5063950;28;20025;-83
2021/09/09 14:40:38;;;;;;;6.13;3.70;;;;;;;;;;5073349;28;20124;-85
2021/09/09 14:43:03;;;;;;;5.67;3.30;;;;;;;;;;5070617;28;20045;-84